Time;durP1;ratioP1;P1;durP2;ratioP2;P2;SDS_P1;SDS_P2;PMS_P1;PMS_P2;Temp;Humidity;BMP_temperature;BMP_pressure;BME280_temperature;BME280_humidity;BME280_pressure;Samples;Min_cycle;Max_cycle;Signal;HPM_P1;HPM_P2
2022/05/01 00:01:17;;;;;;;1.63;1.50;;;;;;;2.87;74.07;101975.47;5094856;28;20036;-70
2022/05/01 00:03:43;;;;;;;8.33;1.80;;;;;;;2.82;74.24;101966.13;5095173;28;20341;-71
2022/05/01 00:06:10;;;;;;;2.13;1.80;;;;;;;2.95;74.56;101996.13;5096205;28;20677;-70
2022/05/01 00:08:41;;;;;;;4.20;2.20;;;;;;;2.70;74.08;101942.19;5094951;28;20081;-71
2022/05/01 00:11:10;;;;;;;4.93;2.23;;;;;;;2.92;73.87;101960.28;5094700;28;20270;-70
2022/05/01 00:13:36;;;;;;;;;;;;;;;3.13;73.25;101979.31;5095362;28;20330;-70
2022/05/01 00:16:02;;;;;;;2.60;1.70;;;;;;;3.01;73.54;101953.66;5076761;28;20022;-71
2022/05/01 00:18:28;;;;;;;3.67;1.60;;;;;;;3.24;73.31;101978.72;5094058;28;20055;-71
2022/05/01 00:20:54;;;;;;;3.13;1.60;;;;;;;3.31;73.35;101983.56;5094039;28;20274;-71
2022/05/01 00:23:19;;;;;;;6.90;2.30;;;;;;;3.27;73.06;101965.38;5094362;28;20047;-71
2022/05/01 00:25:46;;;;;;;2.20;1.47;;;;;;;3.47;73.25;101978.28;5094162;28;20138;-70
2022/05/01 00:28:13;;;;;;;3.17;1.60;;;;;;;3.55;72.20;101981.31;5094413;28;20494;-70
2022/05/01 00:30:40;;;;;;;9.07;1.83;;;;;;;3.54;72.04;101968.25;5094229;28;20323;-70
2022/05/01 00:38:39;;;;;;;3.13;2.23;;;;;;;3.75;71.81;101974.88;5094281;28;20278;-70
2022/05/01 00:41:07;;;;;;;13.80;2.10;;;;;;;3.77;71.74;101970.41;5093878;28;20273;-68
2022/05/01 00:43:55;;;;;;;7.85;2.08;;;;;;;3.81;71.99;101978.97;5094182;28;20055;-68
2022/05/01 00:46:21;;;;;;;4.25;1.55;;;;;;;3.81;71.80;101981.59;5093986;28;20040;-70
2022/05/01 00:48:47;;;;;;;3.67;2.17;;;;;;;3.82;71.90;101983.31;5093744;28;20191;-70
2022/05/01 00:51:14;;;;;;;4.57;1.80;;;;;;;3.76;71.92;101968.69;5094027;28;20266;-71
2022/05/01 00:53:39;;;;;;;6.13;1.93;;;;;;;3.71;71.81;101962.81;5093929;28;20039;-70
2022/05/01 00:56:06;;;;;;;2.17;1.97;;;;;;;3.71;71.86;101965.47;5093879;28;20340;-69
2022/05/01 00:58:32;;;;;;;3.80;2.20;;;;;;;3.89;71.80;101987.28;5093444;28;20031;-71
2022/05/01 01:00:57;;;;;;;3.10;1.60;;;;;;;3.81;71.94;101965.78;5093831;28;20269;-71
2022/05/01 01:03:23;;;;;;;3.03;1.87;;;;;;;3.94;71.76;101988.69;5093407;28;20114;-71
2022/05/01 01:05:48;;;;;;;2.77;1.50;;;;;;;3.91;72.01;101978.34;5093599;28;20060;-70
2022/05/01 01:08:14;;;;;;;6.87;2.67;;;;;;;3.81;71.60;101968.44;5093691;28;20043;-69
2022/05/01 01:10:39;;;;;;;3.23;2.30;;;;;;;3.87;71.92;101979.47;5093578;28;20032;-70
2022/05/01 01:13:05;;;;;;;7.73;2.23;;;;;;;3.83;71.82;101964.75;5093559;28;20085;-70
2022/05/01 01:15:31;;;;;;;2.53;1.83;;;;;;;3.77;72.10;101954.59;5094801;28;20082;-70
2022/05/01 01:17:58;;;;;;;5.13;1.83;;;;;;;3.82;72.22;101970.13;5095350;28;20115;-71
2022/05/01 01:20:26;;;;;;;2.20;2.00;;;;;;;3.90;72.57;101981.91;5093162;28;20258;-70
2022/05/01 01:23:00;;;;;;;2.50;1.75;;;;;;;3.89;72.98;101985.47;5093683;28;20345;-70
2022/05/01 01:25:32;;;;;;;3.27;1.90;;;;;;;3.88;73.24;101981.16;5096084;28;20097;-70
2022/05/01 01:28:03;;;;;;;2.43;1.60;;;;;;;3.02;73.08;101844.84;5093567;28;20792;-70
2022/05/01 01:33:20;;;;;;;6.22;2.10;;;;;;;3.65;73.49;101960.56;5093030;28;20291;-70
2022/05/01 01:35:50;;;;;;;3.73;1.70;;;;;;;3.75;73.65;101982.78;5075477;28;20089;-69
2022/05/01 01:38:16;;;;;;;2.57;1.60;;;;;;;3.74;73.74;101981.94;5092874;28;20347;-72
2022/05/01 01:40:49;;;;;;;4.97;2.33;;;;;;;3.68;74.09;101976.19;5093012;28;20274;-70
2022/05/01 01:43:22;;;;;;;4.17;1.50;;;;;;;3.67;74.09;101971.84;5093907;28;20870;-70
2022/05/01 01:45:48;;;;;;;2.77;1.80;;;;;;;3.65;74.15;101976.34;5094041;28;20353;-70
2022/05/01 01:48:19;;;;;;;6.77;2.17;;;;;;;3.63;73.97;101972.97;5094056;28;20357;-70
2022/05/01 01:51:04;;;;;;;6.33;2.20;;;;;;;3.73;73.59;101987.28;5093007;28;20499;-70
2022/05/01 01:53:32;;;;;;;5.63;1.80;;;;;;;3.74;73.96;101989.00;5092944;28;20812;-69
2022/05/01 01:55:59;;;;;;;8.07;1.80;;;;;;;3.61;74.03;101959.03;5092712;28;20723;-70
2022/05/01 01:58:25;;;;;;;3.83;1.67;;;;;;;3.63;73.93;101965.91;5092812;28;20877;-70
2022/05/01 02:00:51;;;;;;;3.17;1.40;;;;;;;3.74;74.29;101986.34;5092651;28;20262;-71
2022/05/01 02:03:17;;;;;;;2.07;1.60;;;;;;;3.70;74.45;101971.66;5092510;28;20265;-71
2022/05/01 02:05:44;;;;;;;3.03;1.60;;;;;;;3.64;74.28;101958.84;5092706;28;20100;-70
2022/05/01 02:08:10;;;;;;;5.27;1.83;;;;;;;3.69;74.07;101960.28;5092435;28;20266;-69
2022/05/01 02:10:36;;;;;;;5.03;2.00;;;;;;;3.68;73.45;101957.75;5092246;28;20349;-71
2022/05/01 02:13:03;;;;;;;2.30;2.03;;;;;;;3.80;73.08;101962.31;5092489;28;20316;-70
2022/05/01 02:15:32;;;;;;;2.43;1.60;;;;;;;3.87;73.13;101971.56;5092361;28;20036;-72
2022/05/01 02:17:58;;;;;;;;;;;;;;;3.95;72.63;101974.56;5092950;28;20290;-70
2022/05/01 02:20:25;;;;;;;8.33;2.10;;;;;;;3.90;72.77;101971.38;5094735;28;19923;-70
2022/05/01 02:22:52;;;;;;;6.87;1.70;;;;;;;3.89;72.88;101964.41;5094819;28;20032;-70
2022/05/01 02:25:21;;;;;;;1.60;1.43;;;;;;;3.91;72.82;101962.53;5095667;28;20254;-71
2022/05/01 02:27:47;;;;;;;5.00;1.85;;;;;;;3.59;72.99;101906.44;5075118;28;20277;-71
2022/05/01 02:30:13;;;;;;;2.03;1.70;;;;;;;3.86;73.46;101956.69;5074610;28;20040;-70
2022/05/01 02:32:39;;;;;;;4.50;1.53;;;;;;;3.86;72.92;101964.59;5092464;28;20035;-71
2022/05/01 02:35:07;;;;;;;4.10;1.90;;;;;;;3.84;73.11;101953.28;5092375;28;20091;-71
2022/05/01 02:37:32;;;;;;;5.00;1.80;;;;;;;3.96;72.59;101968.38;5091885;28;20274;-69
2022/05/01 02:39:58;;;;;;;2.10;1.63;;;;;;;3.92;72.45;101952.81;5091706;28;20273;-69
2022/05/01 02:42:24;;;;;;;3.77;2.00;;;;;;;4.03;72.75;101963.56;5091572;28;20126;-69
2022/05/01 02:44:49;;;;;;;3.03;1.90;;;;;;;3.99;72.83;101956.78;5092054;28;20052;-70
2022/05/01 02:47:15;;;;;;;4.23;2.07;;;;;;;4.02;72.69;101954.81;5091945;28;20040;-69
2022/05/01 02:49:42;;;;;;;2.50;2.00;;;;;;;3.78;72.95;101911.50;5092627;28;20032;-70
2022/05/01 02:52:32;;;;;;;4.23;1.70;;;;;;;4.12;73.34;101970.94;5093835;28;20474;-71
2022/05/01 02:54:58;;;;;;;4.13;2.17;;;;;;;4.10;73.41;101961.44;5074834;28;20297;-71
2022/05/01 02:57:23;;;;;;;3.30;2.17;;;;;;;4.09;73.69;101968.50;5057202;28;20071;-70
2022/05/01 02:59:49;;;;;;;4.03;2.03;;;;;;;4.08;73.44;101952.78;5091772;28;20045;-69
2022/05/01 03:02:15;;;;;;;3.97;2.53;;;;;;;4.08;73.79;101960.69;5091511;28;20036;-69
2022/05/01 03:04:40;;;;;;;3.83;2.17;;;;;;;4.17;73.63;101965.41;5091676;28;20062;-70
2022/05/01 03:07:07;;;;;;;3.50;1.87;;;;;;;4.21;73.40;101969.53;5056957;28;20081;-70
2022/05/01 03:09:34;;;;;;;3.17;2.23;;;;;;;4.11;73.33;101936.78;5091889;28;20032;-70
2022/05/01 03:12:00;;;;;;;3.27;2.23;;;;;;;4.21;73.68;101959.00;5091931;28;20262;-70
2022/05/01 03:14:26;;;;;;;4.50;2.87;;;;;;;4.13;73.87;101942.78;5091356;28;20293;-71
2022/05/01 03:16:51;;;;;;;2.40;1.77;;;;;;;4.13;73.87;101937.53;5091467;28;20274;-70
2022/05/01 03:22:10;;;;;;;4.27;2.40;;;;;;;4.19;73.53;101940.63;5091430;28;20074;-69
2022/05/01 03:24:38;;;;;;;4.17;2.23;;;;;;;4.31;73.65;101970.69;5091522;28;20759;-71
2022/05/01 03:27:05;;;;;;;7.70;2.97;;;;;;;4.37;73.67;101962.41;5091304;28;20262;-70
2022/05/01 03:29:31;;;;;;;12.77;2.70;;;;;;;4.21;73.81;101924.72;5091682;28;20653;-70
2022/05/01 03:31:59;;;;;;;6.77;2.80;;;;;;;4.42;73.71;101962.13;5091549;28;20270;-70
2022/05/01 03:34:27;;;;;;;6.27;2.27;;;;;;;4.42;73.71;101970.91;5091173;28;20281;-69
2022/05/01 03:36:54;;;;;;;2.35;2.13;;;;;;;4.37;73.12;101959.78;5091301;28;20792;-70
2022/05/01 03:39:20;;;;;;;3.73;2.30;;;;;;;4.37;73.27;101956.28;5091652;28;20060;-70
2022/05/01 03:41:46;;;;;;;3.17;1.80;;;;;;;4.43;73.47;101953.28;5091268;28;20292;-69
2022/05/01 03:44:12;;;;;;;5.97;2.60;;;;;;;4.50;73.62;101973.91;5091457;28;20036;-69
2022/05/01 03:46:38;;;;;;;6.67;2.13;;;;;;;4.42;73.75;101968.25;5091544;28;20267;-70
2022/05/01 03:49:11;;;;;;;5.90;2.40;;;;;;;4.46;74.30;101961.84;5073281;28;20410;-70
2022/05/01 03:51:37;;;;;;;3.83;2.20;;;;;;;4.40;73.92;101954.31;5091667;28;20262;-70
2022/05/01 03:54:05;;;;;;;5.50;2.47;;;;;;;4.39;74.57;101957.03;5091875;28;20457;-70
2022/05/01 03:56:35;;;;;;;4.80;2.17;;;;;;;4.47;74.27;101963.53;5095151;28;20373;-70
2022/05/01 03:59:04;;;;;;;5.10;2.43;;;;;;;4.36;74.24;101944.91;5095344;28;20270;-70
2022/05/01 04:01:31;;;;;;;4.82;2.58;;;;;;;4.50;74.58;101958.06;5095143;28;20300;-72
2022/05/01 04:03:56;;;;;;;5.77;2.73;;;;;;;4.51;74.84;101962.41;5095168;28;20543;-71
2022/05/01 04:06:22;;;;;;;4.97;3.10;;;;;;;4.53;74.64;101960.53;5076622;28;20274;-70
2022/05/01 04:08:48;;;;;;;5.57;2.90;;;;;;;4.61;74.70;101960.03;5094767;28;20036;-70
2022/05/01 04:11:14;;;;;;;6.53;3.77;;;;;;;4.74;74.28;101973.34;5094829;28;20771;-70
2022/05/01 04:13:41;;;;;;;4.30;3.07;;;;;;;4.74;74.60;101957.50;5094513;28;20032;-70
2022/05/01 04:16:07;;;;;;;4.30;2.43;;;;;;;4.79;74.19;101972.09;5076393;28;20294;-70
2022/05/01 04:18:33;;;;;;;5.33;2.27;;;;;;;4.82;73.47;101971.06;5094483;28;20266;-70
2022/05/01 04:20:58;;;;;;;3.63;2.40;;;;;;;4.71;73.96;101955.91;5094806;28;20048;-70
2022/05/01 04:23:24;;;;;;;11.37;4.13;;;;;;;4.73;73.84;101966.38;5094274;28;20258;-70
2022/05/01 04:25:50;;;;;;;6.57;3.80;;;;;;;4.76;73.83;101968.81;5094474;28;20036;-70
2022/05/01 04:28:16;;;;;;;3.73;2.30;;;;;;;4.88;73.68;101968.88;5094804;28;20065;-70
2022/05/01 04:30:43;;;;;;;6.00;2.60;;;;;;;4.86;73.62;101962.00;5095656;28;20039;-70
2022/05/01 04:33:13;;;;;;;5.43;2.70;;;;;;;4.92;73.72;101969.56;5094595;28;20706;-69
2022/05/01 04:35:38;;;;;;;6.07;3.00;;;;;;;5.02;73.62;101973.31;5094179;28;20674;-70
2022/05/01 04:38:09;;;;;;;6.70;2.63;;;;;;;5.01;73.08;101966.31;5093978;28;20264;-70
2022/05/01 04:40:40;;;;;;;3.83;2.70;;;;;;;5.03;72.84;101958.31;5094010;28;20407;-69
2022/05/01 04:43:19;;;;;;;4.33;2.50;;;;;;;5.24;72.93;101975.44;5094056;28;20360;-69
2022/05/01 04:45:50;;;;;;;9.33;2.97;;;;;;;5.20;72.42;101961.56;5093928;28;20266;-69
2022/05/01 04:48:17;;;;;;;7.07;3.13;;;;;;;5.26;72.55;101966.47;5094173;28;20266;-70
2022/05/01 04:50:44;;;;;;;6.43;3.40;;;;;;;5.27;71.80;101973.44;5094356;28;20323;-70
2022/05/01 04:53:11;;;;;;;6.87;2.27;;;;;;;5.25;72.60;101983.25;5094203;28;20259;-70
2022/05/01 04:55:44;;;;;;;5.27;2.80;;;;;;;5.23;72.19;101966.66;5093634;28;20297;-70
2022/05/01 04:58:11;;;;;;;6.10;3.93;;;;;;;5.19;72.66;101953.72;5093858;28;20267;-70
2022/05/01 05:00:37;;;;;;;6.03;2.33;;;;;;;5.28;72.29;101959.28;5093438;28;20258;-72
2022/05/01 05:03:04;;;;;;;6.57;2.50;;;;;;;5.35;71.32;101964.16;5093914;28;20598;-68
2022/05/01 05:05:34;;;;;;;6.27;2.63;;;;;;;5.44;71.41;101979.41;5075402;28;20044;-70
2022/05/01 05:09:53;;;;;;;7.53;2.73;;;;;;;5.41;71.52;101947.91;5075817;28;20336;-71
2022/05/01 05:10:48;;;;;;;4.43;2.40;;;;;;;5.49;70.92;101972.03;5093382;28;20262;-72
2022/05/01 05:13:15;;;;;;;3.97;2.80;;;;;;;5.51;70.95;101965.72;5075376;28;20258;-70
2022/05/01 05:15:41;;;;;;;5.60;2.70;;;;;;;5.65;71.51;101985.94;5093598;28;20310;-70
2022/05/01 05:18:07;;;;;;;5.43;2.30;;;;;;;5.70;70.90;101970.63;5093486;28;20278;-71
2022/05/01 05:20:32;;;;;;;3.93;2.87;;;;;;;5.64;70.68;101960.47;5093703;28;20130;-69
2022/05/01 05:22:58;;;;;;;4.80;2.50;;;;;;;5.63;70.94;101971.97;5093219;28;20032;-71
2022/05/01 05:25:24;;;;;;;5.97;3.03;;;;;;;5.76;70.59;101995.78;5094337;28;20035;-70
2022/05/01 05:27:49;;;;;;;15.40;3.43;;;;;;;5.64;70.69;101971.03;5095323;28;20028;-69
2022/05/01 05:30:15;;;;;;;4.27;2.40;;;;;;;5.77;70.33;101993.03;5095268;28;20062;-73
2022/05/01 05:32:40;;;;;;;6.30;3.17;;;;;;;5.85;70.18;102000.50;5093407;28;20032;-71
2022/05/01 05:35:08;;;;;;;4.87;2.80;;;;;;;6.00;69.94;101996.00;5093072;28;20063;-70
2022/05/01 05:37:33;;;;;;;3.53;2.30;;;;;;;5.98;69.93;101995.25;5093239;28;20040;-72
2022/05/01 05:39:59;;;;;;;3.30;2.17;;;;;;;6.03;69.37;101972.81;5058187;28;20277;-71
2022/05/01 05:42:25;;;;;;;3.90;2.40;;;;;;;6.20;68.98;101996.34;5092963;28;20032;-70
2022/05/01 05:44:51;;;;;;;5.50;2.70;;;;;;;6.21;69.48;101989.25;5095141;28;20077;-71
2022/05/01 05:47:16;;;;;;;4.43;2.73;;;;;;;6.28;68.80;101974.66;5096358;28;20039;-70
2022/05/01 05:49:42;;;;;;;7.43;3.13;;;;;;;6.44;68.32;101993.81;5093673;28;20066;-71
2022/05/01 05:52:07;;;;;;;5.40;2.60;;;;;;;6.39;68.76;102000.41;5092785;28;20036;-71
2022/05/01 05:54:33;;;;;;;4.77;2.83;;;;;;;6.44;68.64;101977.94;5092409;28;20036;-71
2022/05/01 05:56:59;;;;;;;3.87;2.97;;;;;;;6.41;68.65;101967.59;5092659;28;20093;-70
2022/05/01 05:59:24;;;;;;;5.00;2.87;;;;;;;6.25;68.17;101929.91;5092640;28;20068;-71
2022/05/01 06:01:50;;;;;;;6.80;2.97;;;;;;;6.73;67.76;101993.59;5092773;28;20421;-71
2022/05/01 06:04:16;;;;;;;3.47;2.80;;;;;;;6.67;67.32;101978.16;5092806;28;20085;-70
2022/05/01 06:06:41;;;;;;;9.43;3.03;;;;;;;6.80;67.42;101994.84;5092869;28;20036;-69
2022/05/01 06:09:08;;;;;;;6.00;2.73;;;;;;;6.81;67.00;101948.88;5093036;28;20036;-72
2022/05/01 06:11:35;;;;;;;6.50;3.10;;;;;;;7.11;67.06;101996.16;5092812;28;20380;-70
2022/05/01 06:14:02;;;;;;;6.60;4.00;;;;;;;7.21;66.81;101978.63;5092824;28;20779;-70
2022/05/01 06:16:28;;;;;;;6.43;2.70;;;;;;;7.35;65.90;101986.44;5092415;28;20052;-72
2022/05/01 06:18:53;;;;;;;5.50;2.80;;;;;;;7.30;66.54;101979.81;5074668;28;20036;-70
2022/05/01 06:21:19;;;;;;;3.90;2.70;;;;;;;7.50;65.90;101989.78;5075201;28;20526;-69
2022/05/01 06:23:48;;;;;;;12.00;3.30;;;;;;;7.53;65.40;101968.38;5092097;28;20051;-72
2022/05/01 06:26:14;;;;;;;7.30;2.97;;;;;;;7.54;65.26;101972.72;5100901;28;20544;-69
2022/05/01 06:28:40;;;;;;;6.03;4.03;;;;;;;6.94;65.15;101859.69;5102755;28;20032;-68
2022/05/01 06:31:06;;;;;;;7.37;4.30;;;;;;;7.69;65.40;101989.28;5100978;28;20077;-67
2022/05/01 06:33:36;;;;;;;6.60;2.83;;;;;;;7.68;64.74;101990.22;5103164;28;20410;-68
2022/05/01 06:36:05;;;;;;;5.37;2.80;;;;;;;7.29;65.39;101951.63;5103308;28;20571;-69
2022/05/01 06:38:33;;;;;;;7.13;3.07;;;;;;;7.57;65.77;101988.38;5079320;28;20354;-71
2022/05/01 06:41:01;;;;;;;6.40;3.37;;;;;;;7.53;65.14;101989.56;5096848;28;20040;-69
2022/05/01 06:43:27;;;;;;;8.05;3.13;;;;;;;7.53;64.87;101978.97;5074351;28;20077;-69
2022/05/01 06:45:52;;;;;;;4.10;3.00;;;;;;;7.48;65.00;101978.44;5092396;28;20044;-70
2022/05/01 06:48:18;;;;;;;6.87;3.30;;;;;;;7.67;64.44;101993.84;5093386;28;20028;-70
2022/05/01 06:50:44;;;;;;;6.33;3.00;;;;;;;7.90;64.39;101997.44;5092771;28;20487;-70
2022/05/01 06:53:09;;;;;;;5.33;3.50;;;;;;;7.87;64.20;101984.41;5092876;28;20398;-71
2022/05/01 06:55:35;;;;;;;5.20;2.80;;;;;;;8.11;63.42;101998.47;5093283;28;20495;-71
2022/05/01 06:58:02;;;;;;;6.03;4.30;;;;;;;8.21;62.42;102001.25;5093588;28;20526;-70
2022/05/01 07:00:27;;;;;;;5.23;2.90;;;;;;;8.38;62.46;101998.19;5093166;28;20036;-69
2022/05/01 07:02:54;;;;;;;5.83;3.27;;;;;;;8.20;61.75;101976.53;5092478;28;20059;-70
2022/05/01 07:05:21;;;;;;;5.20;2.60;;;;;;;8.29;60.79;101983.78;5092504;28;20036;-69
2022/05/01 07:07:48;;;;;;;4.87;3.33;;;;;;;8.35;60.61;102001.06;5095324;28;20032;-71
2022/05/01 07:10:14;;;;;;;4.50;3.50;;;;;;;8.30;60.40;101981.97;5094597;28;20032;-65
2022/05/01 07:12:39;;;;;;;3.93;2.93;;;;;;;8.57;59.54;102008.22;5057451;28;20402;-65
2022/05/01 07:15:05;;;;;;;5.87;2.57;;;;;;;8.53;58.89;102006.78;5091589;28;20168;-70
2022/05/01 07:17:35;;;;;;;4.00;2.37;;;;;;;8.45;58.99;101998.56;5091978;28;20050;-69
2022/05/01 07:20:04;;;;;;;4.40;2.67;;;;;;;8.25;59.75;101992.94;5091586;28;20212;-74
2022/05/01 07:22:30;;;;;;;5.20;3.00;;;;;;;8.41;59.50;102013.06;5040371;28;20082;-70
2022/05/01 07:24:57;;;;;;;8.03;3.20;;;;;;;8.55;59.01;102004.84;5078665;28;20046;-66
2022/05/01 07:27:23;;;;;;;4.43;2.90;;;;;;;8.57;58.95;102021.50;5084493;28;20063;-70
2022/05/01 07:29:48;;;;;;;5.70;2.77;;;;;;;8.63;59.31;102007.75;5088446;28;20133;-69
2022/05/01 07:32:14;;;;;;;7.60;2.60;;;;;;;8.85;58.43;102013.06;5109844;28;20551;-68
2022/05/01 07:34:41;;;;;;;7.73;2.80;;;;;;;8.65;58.40;101968.63;5105719;28;20055;-68
2022/05/01 07:37:07;;;;;;;5.63;2.73;;;;;;;8.88;58.12;102002.22;5118405;28;20047;-68
2022/05/01 07:39:33;;;;;;;5.93;2.43;;;;;;;8.82;57.70;102018.63;5083030;28;20028;-67
2022/05/01 07:41:59;;;;;;;7.97;3.10;;;;;;;8.85;58.27;102018.38;5084335;28;20076;-70
2022/05/01 07:44:25;;;;;;;5.13;4.10;;;;;;;8.68;57.27;102000.28;5120239;28;20114;-70
2022/05/01 07:46:51;;;;;;;6.17;2.80;;;;;;;8.73;57.69;102022.03;5102371;28;20121;-71
2022/05/01 07:49:17;;;;;;;4.23;2.60;;;;;;;8.52;57.91;101995.31;5120558;28;20063;-71
2022/05/01 07:51:43;;;;;;;3.57;2.63;;;;;;;8.68;57.45;102019.72;5121959;28;20039;-65
2022/05/01 07:54:09;;;;;;;6.33;2.83;;;;;;;8.64;57.12;102022.72;5116822;28;20043;-66
2022/05/01 07:56:34;;;;;;;3.13;2.83;;;;;;;8.49;57.26;102014.16;5097080;28;20044;-64
2022/05/01 07:59:00;;;;;;;8.63;3.87;;;;;;;8.33;58.48;102001.19;5115184;28;20058;-66
2022/05/01 08:01:26;;;;;;;9.50;2.83;;;;;;;8.33;58.07;102011.81;5112803;28;20034;-65
2022/05/01 08:06:36;;;;;;;4.73;2.63;;;;;;;8.11;58.91;102006.44;5093433;28;20502;-67
2022/05/01 08:09:03;;;;;;;4.20;2.53;;;;;;;8.00;59.64;102006.38;5094034;28;20028;-68
2022/05/01 08:11:29;;;;;;;4.23;3.30;;;;;;;7.62;59.61;101954.41;5093866;28;20040;-66
2022/05/01 08:13:55;;;;;;;4.87;3.17;;;;;;;7.77;60.17;102008.09;5093938;28;20058;-66
2022/05/01 08:16:21;;;;;;;9.27;2.80;;;;;;;7.72;60.50;102011.09;5096676;28;20558;-65
2022/05/01 08:21:32;;;;;;;4.53;2.80;;;;;;;7.84;61.04;101987.28;5095277;28;20093;-65
2022/05/01 08:24:00;;;;;;;4.07;2.20;;;;;;;7.98;60.82;101997.69;5099123;28;20557;-70
2022/05/01 08:26:26;;;;;;;4.80;2.90;;;;;;;7.96;59.75;101996.97;5108389;28;20043;-68
2022/05/01 08:28:54;;;;;;;7.87;2.63;;;;;;;8.08;60.01;101991.56;5105788;28;20031;-68
2022/05/01 08:31:21;;;;;;;4.83;3.67;;;;;;;8.25;58.87;101995.59;5101682;28;20039;-67
2022/05/01 08:33:47;;;;;;;5.67;3.47;;;;;;;8.32;59.41;102003.94;5100655;28;20056;-74
2022/05/01 08:36:38;;;;;;;5.10;3.63;;;;;;;8.16;59.23;101988.34;5092105;28;20131;-69
2022/05/01 08:39:04;;;;;;;4.83;2.50;;;;;;;8.05;59.55;101997.09;5102142;28;20047;-71
2022/05/01 08:41:31;;;;;;;7.37;3.27;;;;;;;8.12;59.50;102007.28;5104254;28;20479;-68
2022/05/01 08:43:59;;;;;;;6.90;2.93;;;;;;;8.07;59.70;101991.69;5104300;28;20081;-71
2022/05/01 08:46:36;;;;;;;5.97;3.20;;;;;;;8.42;59.14;102001.47;5100755;28;20106;-70
2022/05/01 08:49:09;;;;;;;8.43;3.10;;;;;;;8.59;58.11;101945.22;5105695;28;20024;-67
2022/05/01 08:51:40;;;;;;;7.57;2.57;;;;;;;9.21;56.37;101997.81;5106071;28;20051;-67
2022/05/01 08:54:11;;;;;;;5.50;2.97;;;;;;;9.32;55.55;101980.06;5102760;28;20160;-68
2022/05/01 08:56:38;;;;;;;3.87;2.57;;;;;;;9.12;55.74;101942.75;5101649;28;20097;-64
2022/05/01 08:59:07;;;;;;;3.57;2.33;;;;;;;9.38;55.38;101977.84;5093884;28;20044;-67
2022/05/01 09:01:34;;;;;;;4.37;2.33;;;;;;;9.53;54.29;101989.88;5094187;28;20057;-71
2022/05/01 09:04:00;;;;;;;5.90;2.57;;;;;;;9.62;53.23;101990.00;5075880;28;20354;-68
2022/05/01 09:06:26;;;;;;;8.00;2.60;;;;;;;9.62;53.37;101974.03;5093879;28;20036;-67
2022/05/01 09:08:51;;;;;;;6.87;2.40;;;;;;;9.45;53.64;101958.59;5093649;28;20054;-68
2022/05/01 09:14:03;;;;;;;2.80;2.50;;;;;;;9.50;53.26;101971.53;5093194;28;20526;-69
2022/05/01 09:16:29;;;;;;;2.50;2.20;;;;;;;9.51;53.42;101979.38;5093690;28;20047;-69
2022/05/01 09:18:55;;;;;;;4.03;2.70;;;;;;;9.39;53.12;101948.47;5075291;28;20036;-70
2022/05/01 09:21:20;;;;;;;10.23;4.00;;;;;;;9.77;53.12;101968.41;5093950;28;20427;-64
2022/05/01 09:23:47;;;;;;;4.77;3.00;;;;;;;9.85;53.00;101947.34;5077574;28;20036;-68
2022/05/01 09:26:14;;;;;;;6.33;4.00;;;;;;;10.27;53.26;101960.66;5087017;28;20045;-68
2022/05/01 09:28:50;;;;;;;6.13;2.60;;;;;;;10.54;50.79;101969.78;5084258;28;20062;-68
2022/05/01 09:31:17;;;;;;;8.87;2.70;;;;;;;10.57;50.83;101958.00;5113663;28;20039;-70
2022/05/01 09:33:43;;;;;;;8.20;2.80;;;;;;;10.51;51.06;101963.88;5110425;28;20153;-69
2022/05/01 09:36:37;;;;;;;2.63;1.90;;;;;;;10.68;49.74;101963.22;5112983;28;20529;-64
2022/05/01 09:39:04;;;;;;;3.57;2.23;;;;;;;10.75;48.13;101951.09;5113355;28;20023;-65
2022/05/01 09:41:30;;;;;;;5.10;1.80;;;;;;;10.75;47.88;101932.44;5115299;28;20031;-68
2022/05/01 09:43:55;;;;;;;4.67;2.47;;;;;;;10.85;47.48;101962.59;5098068;28;20508;-64
2022/05/01 09:46:27;;;;;;;4.40;2.03;;;;;;;10.54;47.86;101942.28;5115433;28;20063;-64
2022/05/01 09:48:57;;;;;;;2.73;1.63;;;;;;;10.57;48.27;101962.50;5113395;28;20023;-65
2022/05/01 09:51:22;;;;;;;5.70;2.27;;;;;;;10.53;48.98;101956.59;5094479;28;20035;-67
2022/05/01 09:53:48;;;;;;;5.63;2.30;;;;;;;10.39;48.76;101943.63;5112743;28;20032;-69
2022/05/01 09:56:13;;;;;;;6.27;2.07;;;;;;;10.09;47.36;101953.22;5112872;28;20410;-69
2022/05/01 09:58:43;;;;;;;5.43;1.90;;;;;;;9.75;48.40;101949.06;5112749;28;20023;-67
2022/05/01 10:01:16;;;;;;;7.40;2.20;;;;;;;9.69;50.37;101933.63;5113198;28;20039;-68
2022/05/01 10:03:46;;;;;;;3.90;2.50;;;;;;;9.66;50.47;101907.28;5113102;28;20042;-73
2022/05/01 10:06:14;;;;;;;2.57;1.70;;;;;;;9.92;48.31;101949.34;5113629;28;20035;-75
2022/05/01 10:08:42;;;;;;;5.35;2.20;;;;;;;9.84;47.60;101949.16;5113091;28;20039;-75
2022/05/01 10:11:08;;;;;;;11.03;2.87;;;;;;;9.75;48.11;101938.41;5112916;28;20039;-74
2022/05/01 10:13:35;;;;;;;5.20;2.03;;;;;;;9.72;47.72;101946.66;5113146;28;20043;-75
2022/05/01 10:16:04;;;;;;;3.47;2.10;;;;;;;9.87;47.31;101934.75;5094971;28;20054;-71
2022/05/01 10:18:30;;;;;;;1.20;1.10;;;;;;;9.91;46.68;101938.84;5112576;28;20035;-67
2022/05/01 10:20:55;;;;;;;3.70;1.90;;;;;;;9.87;47.22;101926.75;5112705;28;20410;-71
2022/05/01 10:29:25;;;;;;;4.60;1.93;;;;;;;10.06;47.10;101940.16;5072802;28;20401;-71
2022/05/01 10:32:21;;;;;;;3.80;2.10;;;;;;;10.15;47.38;101928.75;5064884;28;20110;-67
2022/05/01 10:35:18;;;;;;;4.60;2.50;;;;;;;10.31;46.22;101935.44;5083595;28;20514;-71
2022/05/01 10:38:17;;;;;;;1.87;1.77;;;;;;;10.33;45.75;101926.34;5081994;28;20040;-68
2022/05/01 10:40:48;;;;;;;2.23;1.83;;;;;;;10.34;44.97;101940.50;5056957;28;20182;-71
2022/05/01 10:43:30;;;;;;;1.90;1.40;;;;;;;10.16;45.15;101943.75;5069013;28;20036;-70
2022/05/01 10:46:00;;;;;;;2.43;1.80;;;;;;;10.04;46.01;101934.13;5068689;28;20503;-63
2022/05/01 10:48:39;;;;;;;5.67;2.27;;;;;;;10.03;45.44;101932.44;5068721;28;20407;-69
2022/05/01 10:51:30;;;;;;;2.47;1.83;;;;;;;10.05;45.09;101935.81;5068263;28;20033;-67
2022/05/01 10:54:11;;;;;;;2.53;1.53;;;;;;;9.85;43.42;101942.00;5059408;28;20086;-65
2022/05/01 10:56:38;;;;;;;6.43;2.83;;;;;;;9.54;45.00;101931.28;5068511;28;20036;-69
2022/05/01 10:59:31;;;;;;;3.10;2.10;;;;;;;9.41;45.00;101946.53;5068036;28;20051;-72
2022/05/01 11:01:59;;;;;;;5.60;2.13;;;;;;;9.46;45.96;101944.34;5056748;28;20140;-67
2022/05/01 11:04:28;;;;;;;5.17;1.90;;;;;;;9.41;46.51;101935.06;5047435;28;20049;-67
2022/05/01 11:06:56;;;;;;;2.03;1.67;;;;;;;9.26;46.81;101937.19;5048437;28;20463;-66
2022/05/01 11:09:23;;;;;;;11.50;2.37;;;;;;;9.26;47.30;101931.88;5048009;28;20057;-69
2022/05/01 11:11:57;;;;;;;6.77;1.80;;;;;;;9.37;47.32;101937.13;5048059;28;20032;-68
2022/05/01 11:14:38;;;;;;;4.73;2.43;;;;;;;9.43;46.11;101933.97;5048314;28;20029;-66
2022/05/01 11:17:04;;;;;;;6.70;1.90;;;;;;;9.56;45.87;101939.97;5047964;28;20041;-68
2022/05/01 11:19:31;;;;;;;6.57;1.90;;;;;;;9.40;45.94;101942.19;5048092;28;20044;-69
2022/05/01 11:21:58;;;;;;;2.47;1.37;;;;;;;9.27;46.23;101925.56;5047558;28;20446;-68
2022/05/01 11:24:43;;;;;;;2.33;1.30;;;;;;;9.50;46.26;101945.78;5046551;28;20132;-69
2022/05/01 11:27:11;;;;;;;7.83;2.23;;;;;;;9.53;46.73;101936.69;5047673;28;20496;-65
2022/05/01 11:30:42;;;;;;;6.72;1.73;;;;;;;9.65;47.18;101941.00;5048415;28;20053;-64
2022/05/01 11:33:11;;;;;;;7.47;3.13;;;;;;;9.69;46.45;101923.81;5047308;28;20045;-65
2022/05/01 11:35:55;;;;;;;5.10;2.93;;;;;;;9.71;46.72;101931.66;5047581;28;20498;-65
2022/05/01 11:38:38;;;;;;;3.10;1.87;;;;;;;9.81;47.25;101941.41;5044661;28;20408;-63
2022/05/01 11:41:06;;;;;;;3.30;1.90;;;;;;;9.97;47.27;101932.97;5034275;28;20059;-65
2022/05/01 11:43:34;;;;;;;5.37;1.73;;;;;;;10.31;46.55;101940.78;5034099;28;20033;-68
2022/05/01 11:46:01;;;;;;;3.55;1.60;;;;;;;10.50;46.20;101930.22;5034347;28;20404;-66
2022/05/01 11:48:27;;;;;;;2.23;1.60;;;;;;;10.41;45.73;101899.91;5034484;28;20120;-66
2022/05/01 11:50:54;;;;;;;3.47;2.00;;;;;;;10.50;45.31;101925.75;5034406;28;20080;-64
2022/05/01 11:53:29;;;;;;;6.87;2.20;;;;;;;10.20;45.43;101929.25;5034302;28;20501;-65
2022/05/01 12:04:34;;;;;;;4.03;1.80;;;;;;;9.84;48.60;101905.75;5034349;28;20068;-66
2022/05/01 12:07:16;;;;;;;3.30;1.90;;;;;;;10.04;48.57;101918.16;5033847;28;20489;-66
2022/05/01 12:09:43;;;;;;;5.27;1.90;;;;;;;10.02;48.91;101912.13;5033741;28;20412;-67
2022/05/01 12:12:11;;;;;;;4.23;1.37;;;;;;;9.97;48.86;101905.53;5033574;28;20036;-65